sensor_id;sensor_type;location;lat;lon;timestamp;P1;durP1;ratioP1;P2;durP2;ratioP2
40373;SDS011;26079;45.958;12.492;2023-05-16T00:00:22;29.70;;;28.02;;
40373;SDS011;26079;45.958;12.492;2023-05-16T00:02:51;33.45;;;31.67;;
40373;SDS011;26079;45.958;12.492;2023-05-16T00:05:17;21.05;;;19.98;;
40373;SDS011;26079;45.958;12.492;2023-05-16T00:07:44;21.58;;;20.45;;
40373;SDS011;26079;45.958;12.492;2023-05-16T00:10:11;18.08;;;17.10;;
40373;SDS011;26079;45.958;12.492;2023-05-16T00:12:37;21.05;;;19.98;;
40373;SDS011;26079;45.958;12.492;2023-05-16T00:15:07;8.07;;;7.63;;
40373;SDS011;26079;45.958;12.492;2023-05-16T00:17:36;10.27;;;9.77;;
40373;SDS011;26079;45.958;12.492;2023-05-16T00:20:03;4.65;;;4.40;;
40373;SDS011;26079;45.958;12.492;2023-05-16T00:22:35;9.88;;;9.38;;
40373;SDS011;26079;45.958;12.492;2023-05-16T00:25:01;17.90;;;17.02;;
40373;SDS011;26079;45.958;12.492;2023-05-16T00:27:27;15.77;;;14.90;;
40373;SDS011;26079;45.958;12.492;2023-05-16T00:29:54;21.38;;;20.05;;
40373;SDS011;26079;45.958;12.492;2023-05-16T00:32:20;37.28;;;35.28;;
40373;SDS011;26079;45.958;12.492;2023-05-16T00:34:45;33.78;;;31.67;;
40373;SDS011;26079;45.958;12.492;2023-05-16T00:37:11;15.13;;;14.38;;
40373;SDS011;26079;45.958;12.492;2023-05-16T00:39:37;24.17;;;22.95;;
40373;SDS011;26079;45.958;12.492;2023-05-16T00:42:03;31.67;;;30.08;;
40373;SDS011;26079;45.958;12.492;2023-05-16T00:44:29;13.70;;;12.98;;
40373;SDS011;26079;45.958;12.492;2023-05-16T00:46:55;11.23;;;10.65;;
40373;SDS011;26079;45.958;12.492;2023-05-16T00:49:22;9.50;;;9.00;;
40373;SDS011;26079;45.958;12.492;2023-05-16T00:51:48;5.63;;;5.35;;
40373;SDS011;26079;45.958;12.492;2023-05-16T00:54:14;11.27;;;10.77;;
40373;SDS011;26079;45.958;12.492;2023-05-16T00:56:39;3.35;;;1.38;;
40373;SDS011;26079;45.958;12.492;2023-05-16T00:59:05;2.17;;;2.05;;
40373;SDS011;26079;45.958;12.492;2023-05-16T01:01:31;3.78;;;2.92;;
40373;SDS011;26079;45.958;12.492;2023-05-16T01:03:57;3.70;;;0.93;;
40373;SDS011;26079;45.958;12.492;2023-05-16T01:06:25;2.08;;;1.45;;
40373;SDS011;26079;45.958;12.492;2023-05-16T01:08:50;0.73;;;0.73;;
40373;SDS011;26079;45.958;12.492;2023-05-16T01:14:18;1.73;;;0.95;;
40373;SDS011;26079;45.958;12.492;2023-05-16T01:17:10;6.32;;;0.82;;
40373;SDS011;26079;45.958;12.492;2023-05-16T01:27:50;1.10;;;1.00;;
40373;SDS011;26079;45.958;12.492;2023-05-16T01:30:17;1.02;;;0.90;;
40373;SDS011;26079;45.958;12.492;2023-05-16T01:32:44;1.20;;;0.70;;
40373;SDS011;26079;45.958;12.492;2023-05-16T01:35:11;1.40;;;0.70;;
40373;SDS011;26079;45.958;12.492;2023-05-16T01:37:54;0.60;;;0.60;;
40373;SDS011;26079;45.958;12.492;2023-05-16T01:41:11;1.63;;;0.63;;
40373;SDS011;26079;45.958;12.492;2023-05-16T01:43:19;0.88;;;0.82;;
40373;SDS011;26079;45.958;12.492;2023-05-16T01:45:57;0.65;;;0.65;;
40373;SDS011;26079;45.958;12.492;2023-05-16T01:48:29;2.13;;;0.80;;
40373;SDS011;26079;45.958;12.492;2023-05-16T01:51:01;0.70;;;0.60;;
40373;SDS011;26079;45.958;12.492;2023-05-16T01:53:31;0.93;;;0.80;;
40373;SDS011;26079;45.958;12.492;2023-05-16T01:56:00;1.15;;;0.68;;
40373;SDS011;26079;45.958;12.492;2023-05-16T01:58:27;1.33;;;0.50;;
40373;SDS011;26079;45.958;12.492;2023-05-16T02:00:59;4.25;;;1.02;;
40373;SDS011;26079;45.958;12.492;2023-05-16T02:03:30;1.60;;;1.08;;
40373;SDS011;26079;45.958;12.492;2023-05-16T02:05:56;2.83;;;1.48;;
40373;SDS011;26079;45.958;12.492;2023-05-16T02:08:22;4.20;;;1.60;;
40373;SDS011;26079;45.958;12.492;2023-05-16T02:10:50;1.75;;;1.45;;
40373;SDS011;26079;45.958;12.492;2023-05-16T02:13:16;1.90;;;1.77;;
40373;SDS011;26079;45.958;12.492;2023-05-16T02:15:41;10.63;;;10.02;;
40373;SDS011;26079;45.958;12.492;2023-05-16T02:18:07;31.80;;;30.08;;
40373;SDS011;26079;45.958;12.492;2023-05-16T02:20:33;10.75;;;10.23;;
40373;SDS011;26079;45.958;12.492;2023-05-16T02:22:59;4.95;;;4.65;;
40373;SDS011;26079;45.958;12.492;2023-05-16T02:25:25;12.07;;;11.48;;
40373;SDS011;26079;45.958;12.492;2023-05-16T02:27:50;17.23;;;16.35;;
40373;SDS011;26079;45.958;12.492;2023-05-16T02:30:16;12.23;;;11.43;;
40373;SDS011;26079;45.958;12.492;2023-05-16T02:32:42;9.15;;;8.35;;
40373;SDS011;26079;45.958;12.492;2023-05-16T02:35:09;11.20;;;10.65;;
40373;SDS011;26079;45.958;12.492;2023-05-16T02:37:35;34.05;;;31.80;;
40373;SDS011;26079;45.958;12.492;2023-05-16T02:40:01;10.77;;;10.23;;
40373;SDS011;26079;45.958;12.492;2023-05-16T02:42:31;10.27;;;9.70;;
40373;SDS011;26079;45.958;12.492;2023-05-16T02:44:57;11.63;;;11.00;;
40373;SDS011;26079;45.958;12.492;2023-05-16T02:47:22;24.92;;;23.60;;
40373;SDS011;26079;45.958;12.492;2023-05-16T02:49:48;4.38;;;3.97;;
40373;SDS011;26079;45.958;12.492;2023-05-16T02:52:13;8.55;;;8.15;;
40373;SDS011;26079;45.958;12.492;2023-05-16T02:54:39;22.77;;;21.60;;
40373;SDS011;26079;45.958;12.492;2023-05-16T02:57:05;45.60;;;43.17;;
40373;SDS011;26079;45.958;12.492;2023-05-16T02:59:30;38.72;;;36.72;;
40373;SDS011;26079;45.958;12.492;2023-05-16T03:01:56;48.03;;;45.45;;
40373;SDS011;26079;45.958;12.492;2023-05-16T03:04:22;42.45;;;40.22;;
40373;SDS011;26079;45.958;12.492;2023-05-16T03:06:47;50.20;;;47.55;;
40373;SDS011;26079;45.958;12.492;2023-05-16T03:09:15;40.50;;;38.42;;
40373;SDS011;26079;45.958;12.492;2023-05-16T03:11:41;46.05;;;43.65;;
40373;SDS011;26079;45.958;12.492;2023-05-16T03:14:06;38.88;;;36.85;;
40373;SDS011;26079;45.958;12.492;2023-05-16T03:16:32;32.47;;;30.77;;
40373;SDS011;26079;45.958;12.492;2023-05-16T03:18:58;50.97;;;48.30;;
40373;SDS011;26079;45.958;12.492;2023-05-16T03:21:23;46.83;;;44.30;;
40373;SDS011;26079;45.958;12.492;2023-05-16T03:23:49;46.00;;;43.60;;
40373;SDS011;26079;45.958;12.492;2023-05-16T03:26:15;51.20;;;48.47;;
40373;SDS011;26079;45.958;12.492;2023-05-16T03:28:41;39.08;;;37.03;;
40373;SDS011;26079;45.958;12.492;2023-05-16T03:31:06;43.25;;;40.58;;
40373;SDS011;26079;45.958;12.492;2023-05-16T03:33:32;41.90;;;39.65;;
40373;SDS011;26079;45.958;12.492;2023-05-16T03:35:58;42.22;;;40.03;;
40373;SDS011;26079;45.958;12.492;2023-05-16T03:38:23;49.22;;;46.47;;
40373;SDS011;26079;45.958;12.492;2023-05-16T03:40:49;49.58;;;46.85;;
40373;SDS011;26079;45.958;12.492;2023-05-16T03:43:15;52.28;;;49.00;;
40373;SDS011;26079;45.958;12.492;2023-05-16T03:45:41;53.83;;;51.03;;
40373;SDS011;26079;45.958;12.492;2023-05-16T03:48:07;47.75;;;45.25;;
40373;SDS011;26079;45.958;12.492;2023-05-16T03:50:33;53.33;;;50.53;;
40373;SDS011;26079;45.958;12.492;2023-05-16T03:53:01;47.88;;;45.38;;
40373;SDS011;26079;45.958;12.492;2023-05-16T03:55:27;47.33;;;44.65;;
40373;SDS011;26079;45.958;12.492;2023-05-16T03:57:54;47.70;;;44.83;;
40373;SDS011;26079;45.958;12.492;2023-05-16T04:00:20;42.83;;;40.60;;
40373;SDS011;26079;45.958;12.492;2023-05-16T04:02:46;46.47;;;44.05;;
40373;SDS011;26079;45.958;12.492;2023-05-16T04:05:12;47.05;;;44.58;;
40373;SDS011;26079;45.958;12.492;2023-05-16T04:07:38;50.75;;;48.10;;
40373;SDS011;26079;45.958;12.492;2023-05-16T04:10:04;49.03;;;46.40;;
40373;SDS011;26079;45.958;12.492;2023-05-16T04:12:30;52.22;;;49.50;;
40373;SDS011;26079;45.958;12.492;2023-05-16T04:14:56;57.75;;;54.70;;
40373;SDS011;26079;45.958;12.492;2023-05-16T04:17:22;49.22;;;46.63;;
40373;SDS011;26079;45.958;12.492;2023-05-16T04:19:47;50.72;;;48.05;;
40373;SDS011;26079;45.958;12.492;2023-05-16T04:22:13;42.90;;;40.67;;
40373;SDS011;26079;45.958;12.492;2023-05-16T04:24:38;32.63;;;30.88;;
40373;SDS011;26079;45.958;12.492;2023-05-16T04:27:04;40.53;;;38.38;;
40373;SDS011;26079;45.958;12.492;2023-05-16T04:29:33;52.80;;;49.92;;
40373;SDS011;26079;45.958;12.492;2023-05-16T04:31:59;53.15;;;50.33;;
40373;SDS011;26079;45.958;12.492;2023-05-16T04:34:25;51.22;;;48.22;;
40373;SDS011;26079;45.958;12.492;2023-05-16T04:36:52;12.93;;;12.20;;
40373;SDS011;26079;45.958;12.492;2023-05-16T04:39:18;32.35;;;30.60;;
40373;SDS011;26079;45.958;12.492;2023-05-16T04:41:43;20.85;;;19.45;;
40373;SDS011;26079;45.958;12.492;2023-05-16T04:44:09;6.30;;;5.63;;
40373;SDS011;26079;45.958;12.492;2023-05-16T04:46:35;2.58;;;1.70;;
40373;SDS011;26079;45.958;12.492;2023-05-16T04:49:01;7.50;;;1.40;;
40373;SDS011;26079;45.958;12.492;2023-05-16T04:51:27;1.67;;;0.80;;
40373;SDS011;26079;45.958;12.492;2023-05-16T04:53:52;1.50;;;1.40;;
40373;SDS011;26079;45.958;12.492;2023-05-16T04:56:18;3.33;;;2.08;;
40373;SDS011;26079;45.958;12.492;2023-05-16T04:58:44;1.83;;;1.25;;
40373;SDS011;26079;45.958;12.492;2023-05-16T05:01:10;0.90;;;0.90;;
40373;SDS011;26079;45.958;12.492;2023-05-16T05:03:36;1.65;;;1.00;;
40373;SDS011;26079;45.958;12.492;2023-05-16T05:06:02;1.35;;;1.25;;
40373;SDS011;26079;45.958;12.492;2023-05-16T05:08:28;3.83;;;3.58;;
40373;SDS011;26079;45.958;12.492;2023-05-16T05:10:57;5.60;;;5.30;;
40373;SDS011;26079;45.958;12.492;2023-05-16T05:13:22;16.85;;;16.02;;
40373;SDS011;26079;45.958;12.492;2023-05-16T05:15:48;6.88;;;6.32;;
40373;SDS011;26079;45.958;12.492;2023-05-16T05:18:16;5.75;;;5.35;;
40373;SDS011;26079;45.958;12.492;2023-05-16T05:20:42;8.52;;;4.40;;
40373;SDS011;26079;45.958;12.492;2023-05-16T05:23:08;1.38;;;0.95;;
40373;SDS011;26079;45.958;12.492;2023-05-16T05:25:34;2.33;;;1.45;;
40373;SDS011;26079;45.958;12.492;2023-05-16T05:28:00;2.80;;;2.60;;
40373;SDS011;26079;45.958;12.492;2023-05-16T05:30:26;1.98;;;1.88;;
40373;SDS011;26079;45.958;12.492;2023-05-16T05:32:52;3.55;;;1.73;;
40373;SDS011;26079;45.958;12.492;2023-05-16T05:35:18;1.55;;;1.45;;
40373;SDS011;26079;45.958;12.492;2023-05-16T05:37:45;5.07;;;2.50;;
40373;SDS011;26079;45.958;12.492;2023-05-16T05:40:10;4.07;;;1.83;;
40373;SDS011;26079;45.958;12.492;2023-05-16T05:42:36;2.72;;;1.42;;
40373;SDS011;26079;45.958;12.492;2023-05-16T05:45:02;1.25;;;1.10;;
40373;SDS011;26079;45.958;12.492;2023-05-16T05:47:28;4.78;;;1.00;;
40373;SDS011;26079;45.958;12.492;2023-05-16T05:49:54;1.33;;;0.80;;
40373;SDS011;26079;45.958;12.492;2023-05-16T05:52:21;2.40;;;2.22;;
40373;SDS011;26079;45.958;12.492;2023-05-16T05:54:47;5.60;;;0.80;;
40373;SDS011;26079;45.958;12.492;2023-05-16T05:57:12;5.82;;;1.75;;
40373;SDS011;26079;45.958;12.492;2023-05-16T05:59:38;0.75;;;0.73;;
40373;SDS011;26079;45.958;12.492;2023-05-16T06:02:04;3.80;;;1.58;;
40373;SDS011;26079;45.958;12.492;2023-05-16T06:04:30;6.63;;;1.63;;
40373;SDS011;26079;45.958;12.492;2023-05-16T06:06:55;2.28;;;0.93;;
40373;SDS011;26079;45.958;12.492;2023-05-16T06:09:21;2.13;;;0.73;;
40373;SDS011;26079;45.958;12.492;2023-05-16T06:11:48;1.30;;;1.20;;
40373;SDS011;26079;45.958;12.492;2023-05-16T06:14:14;1.20;;;1.10;;
40373;SDS011;26079;45.958;12.492;2023-05-16T06:16:40;1.67;;;1.10;;
40373;SDS011;26079;45.958;12.492;2023-05-16T06:19:06;8.98;;;8.43;;
40373;SDS011;26079;45.958;12.492;2023-05-16T06:21:31;4.05;;;0.82;;
40373;SDS011;26079;45.958;12.492;2023-05-16T06:23:57;2.92;;;2.65;;
40373;SDS011;26079;45.958;12.492;2023-05-16T06:26:23;2.53;;;2.20;;
40373;SDS011;26079;45.958;12.492;2023-05-16T06:28:49;3.15;;;2.95;;
40373;SDS011;26079;45.958;12.492;2023-05-16T06:31:14;18.17;;;17.15;;
40373;SDS011;26079;45.958;12.492;2023-05-16T06:33:40;8.23;;;7.63;;
40373;SDS011;26079;45.958;12.492;2023-05-16T06:36:06;4.85;;;3.63;;
40373;SDS011;26079;45.958;12.492;2023-05-16T06:38:31;6.00;;;5.68;;
40373;SDS011;26079;45.958;12.492;2023-05-16T06:41:00;4.18;;;3.88;;
40373;SDS011;26079;45.958;12.492;2023-05-16T06:43:26;3.22;;;3.00;;
40373;SDS011;26079;45.958;12.492;2023-05-16T06:45:52;4.45;;;4.13;;
40373;SDS011;26079;45.958;12.492;2023-05-16T06:48:17;7.72;;;7.25;;
40373;SDS011;26079;45.958;12.492;2023-05-16T06:50:49;9.20;;;8.57;;
40373;SDS011;26079;45.958;12.492;2023-05-16T06:53:16;11.90;;;11.25;;
40373;SDS011;26079;45.958;12.492;2023-05-16T06:55:42;3.35;;;3.08;;
40373;SDS011;26079;45.958;12.492;2023-05-16T06:58:08;5.57;;;5.25;;
40373;SDS011;26079;45.958;12.492;2023-05-16T07:00:34;5.68;;;3.88;;
40373;SDS011;26079;45.958;12.492;2023-05-16T07:03:00;4.30;;;4.07;;
40373;SDS011;26079;45.958;12.492;2023-05-16T07:05:27;12.13;;;11.48;;
40373;SDS011;26079;45.958;12.492;2023-05-16T07:07:53;4.03;;;3.10;;
40373;SDS011;26079;45.958;12.492;2023-05-16T07:10:19;3.58;;;3.38;;
40373;SDS011;26079;45.958;12.492;2023-05-16T07:12:45;3.10;;;2.78;;
40373;SDS011;26079;45.958;12.492;2023-05-16T07:15:12;3.80;;;3.60;;
40373;SDS011;26079;45.958;12.492;2023-05-16T07:17:38;15.73;;;14.85;;
40373;SDS011;26079;45.958;12.492;2023-05-16T07:20:04;19.33;;;18.27;;
40373;SDS011;26079;45.958;12.492;2023-05-16T07:22:30;26.10;;;24.38;;
40373;SDS011;26079;45.958;12.492;2023-05-16T07:24:56;11.73;;;11.02;;
40373;SDS011;26079;45.958;12.492;2023-05-16T07:27:24;36.30;;;34.28;;
40373;SDS011;26079;45.958;12.492;2023-05-16T07:29:51;35.40;;;33.38;;
40373;SDS011;26079;45.958;12.492;2023-05-16T07:32:16;15.85;;;14.82;;
40373;SDS011;26079;45.958;12.492;2023-05-16T07:34:42;37.83;;;35.15;;
40373;SDS011;26079;45.958;12.492;2023-05-16T07:37:08;53.70;;;50.17;;
40373;SDS011;26079;45.958;12.492;2023-05-16T07:39:37;49.50;;;46.75;;
40373;SDS011;26079;45.958;12.492;2023-05-16T07:42:05;12.57;;;11.45;;
40373;SDS011;26079;45.958;12.492;2023-05-16T07:44:31;6.32;;;5.57;;
40373;SDS011;26079;45.958;12.492;2023-05-16T07:46:57;5.93;;;4.32;;
40373;SDS011;26079;45.958;12.492;2023-05-16T07:49:22;8.18;;;7.43;;
40373;SDS011;26079;45.958;12.492;2023-05-16T07:51:48;22.27;;;20.80;;
40373;SDS011;26079;45.958;12.492;2023-05-16T07:54:14;12.25;;;11.35;;
40373;SDS011;26079;45.958;12.492;2023-05-16T07:56:39;14.23;;;13.38;;
40373;SDS011;26079;45.958;12.492;2023-05-16T07:59:05;5.70;;;5.38;;
40373;SDS011;26079;45.958;12.492;2023-05-16T08:01:32;13.10;;;12.40;;
40373;SDS011;26079;45.958;12.492;2023-05-16T08:03:57;11.48;;;10.60;;
40373;SDS011;26079;45.958;12.492;2023-05-16T08:06:23;29.88;;;28.20;;
40373;SDS011;26079;45.958;12.492;2023-05-16T08:08:49;4.38;;;3.80;;
40373;SDS011;26079;45.958;12.492;2023-05-16T08:11:15;15.93;;;14.77;;
40373;SDS011;26079;45.958;12.492;2023-05-16T08:13:40;20.63;;;19.45;;
40373;SDS011;26079;45.958;12.492;2023-05-16T08:16:06;4.25;;;3.85;;
40373;SDS011;26079;45.958;12.492;2023-05-16T08:18:31;5.72;;;5.38;;
40373;SDS011;26079;45.958;12.492;2023-05-16T08:20:57;16.95;;;11.43;;
40373;SDS011;26079;45.958;12.492;2023-05-16T08:23:23;4.97;;;4.60;;
40373;SDS011;26079;45.958;12.492;2023-05-16T08:25:48;16.45;;;15.32;;
40373;SDS011;26079;45.958;12.492;2023-05-16T08:28:14;23.88;;;22.35;;
40373;SDS011;26079;45.958;12.492;2023-05-16T08:30:40;13.90;;;7.60;;
40373;SDS011;26079;45.958;12.492;2023-05-16T08:33:06;4.68;;;3.78;;
40373;SDS011;26079;45.958;12.492;2023-05-16T08:35:32;10.18;;;9.13;;
40373;SDS011;26079;45.958;12.492;2023-05-16T08:37:59;16.25;;;6.32;;
40373;SDS011;26079;45.958;12.492;2023-05-16T08:40:26;9.50;;;5.55;;
40373;SDS011;26079;45.958;12.492;2023-05-16T08:42:53;4.07;;;3.55;;
40373;SDS011;26079;45.958;12.492;2023-05-16T08:45:19;3.22;;;2.92;;
40373;SDS011;26079;45.958;12.492;2023-05-16T08:47:46;4.95;;;2.97;;
40373;SDS011;26079;45.958;12.492;2023-05-16T08:50:15;8.77;;;5.38;;
40373;SDS011;26079;45.958;12.492;2023-05-16T08:52:41;6.57;;;5.68;;
40373;SDS011;26079;45.958;12.492;2023-05-16T08:55:08;6.60;;;6.00;;
40373;SDS011;26079;45.958;12.492;2023-05-16T08:57:35;77.75;;;73.38;;
40373;SDS011;26079;45.958;12.492;2023-05-16T09:00:01;5.55;;;5.15;;
40373;SDS011;26079;45.958;12.492;2023-05-16T09:02:31;5.25;;;1.80;;
40373;SDS011;26079;45.958;12.492;2023-05-16T09:04:57;0.93;;;0.52;;
40373;SDS011;26079;45.958;12.492;2023-05-16T09:07:24;1.25;;;1.10;;
40373;SDS011;26079;45.958;12.492;2023-05-16T09:09:50;4.97;;;0.30;;
40373;SDS011;26079;45.958;12.492;2023-05-16T09:12:16;3.15;;;1.65;;
40373;SDS011;26079;45.958;12.492;2023-05-16T09:14:41;2.17;;;1.23;;
40373;SDS011;26079;45.958;12.492;2023-05-16T09:17:07;0.30;;;0.30;;
40373;SDS011;26079;45.958;12.492;2023-05-16T09:19:40;0.10;;;0.10;;
40373;SDS011;26079;45.958;12.492;2023-05-16T09:22:10;1.45;;;0.40;;
40373;SDS011;26079;45.958;12.492;2023-05-16T09:24:41;0.77;;;0.40;;
40373;SDS011;26079;45.958;12.492;2023-05-16T09:27:11;0.40;;;0.17;;
40373;SDS011;26079;45.958;12.492;2023-05-16T09:29:41;1.23;;;0.20;;
40373;SDS011;26079;45.958;12.492;2023-05-16T09:32:11;13.52;;;1.63;;
40373;SDS011;26079;45.958;12.492;2023-05-16T09:34:45;0.70;;;0.50;;
40373;SDS011;26079;45.958;12.492;2023-05-16T09:37:13;5.63;;;1.20;;
40373;SDS011;26079;45.958;12.492;2023-05-16T09:39:49;0.30;;;0.20;;
40373;SDS011;26079;45.958;12.492;2023-05-16T09:42:16;1.05;;;0.52;;
40373;SDS011;26079;45.958;12.492;2023-05-16T09:44:50;1.60;;;0.77;;
40373;SDS011;26079;45.958;12.492;2023-05-16T09:47:17;0.77;;;0.60;;
40373;SDS011;26079;45.958;12.492;2023-05-16T09:49:44;3.40;;;0.60;;
40373;SDS011;26079;45.958;12.492;2023-05-16T09:52:11;0.80;;;0.60;;
40373;SDS011;26079;45.958;12.492;2023-05-16T09:54:38;3.53;;;0.30;;
40373;SDS011;26079;45.958;12.492;2023-05-16T09:57:04;3.00;;;0.20;;
40373;SDS011;26079;45.958;12.492;2023-05-16T09:59:30;7.57;;;0.30;;
40373;SDS011;26079;45.958;12.492;2023-05-16T10:01:59;1.08;;;0.30;;
40373;SDS011;26079;45.958;12.492;2023-05-16T10:04:27;1.17;;;0.20;;
40373;SDS011;26079;45.958;12.492;2023-05-16T10:06:53;0.75;;;0.43;;
40373;SDS011;26079;45.958;12.492;2023-05-16T10:09:22;2.05;;;0.82;;
40373;SDS011;26079;45.958;12.492;2023-05-16T10:11:48;2.33;;;0.28;;
40373;SDS011;26079;45.958;12.492;2023-05-16T10:14:16;5.15;;;0.30;;
40373;SDS011;26079;45.958;12.492;2023-05-16T10:16:43;1.80;;;0.10;;
40373;SDS011;26079;45.958;12.492;2023-05-16T10:19:11;1.02;;;0.95;;
40373;SDS011;26079;45.958;12.492;2023-05-16T10:21:38;1.80;;;0.10;;
40373;SDS011;26079;45.958;12.492;2023-05-16T10:24:07;2.00;;;0.35;;
40373;SDS011;26079;45.958;12.492;2023-05-16T10:26:37;3.22;;;0.45;;
40373;SDS011;26079;45.958;12.492;2023-05-16T10:29:03;0.75;;;0.20;;
40373;SDS011;26079;45.958;12.492;2023-05-16T10:31:29;0.85;;;0.25;;
40373;SDS011;26079;45.958;12.492;2023-05-16T10:33:58;0.73;;;0.30;;
40373;SDS011;26079;45.958;12.492;2023-05-16T10:36:24;0.80;;;0.28;;
40373;SDS011;26079;45.958;12.492;2023-05-16T10:38:50;1.73;;;0.75;;
40373;SDS011;26079;45.958;12.492;2023-05-16T10:41:16;0.47;;;0.20;;
40373;SDS011;26079;45.958;12.492;2023-05-16T10:43:44;2.53;;;1.13;;
40373;SDS011;26079;45.958;12.492;2023-05-16T10:46:20;0.32;;;0.10;;
40373;SDS011;26079;45.958;12.492;2023-05-16T10:48:48;0.82;;;0.30;;
40373;SDS011;26079;45.958;12.492;2023-05-16T10:53:51;0.10;;;0.10;;
40373;SDS011;26079;45.958;12.492;2023-05-16T10:56:25;0.40;;;0.20;;
40373;SDS011;26079;45.958;12.492;2023-05-16T10:58:52;2.22;;;0.30;;
40373;SDS011;26079;45.958;12.492;2023-05-16T11:01:23;3.65;;;0.50;;
40373;SDS011;26079;45.958;12.492;2023-05-16T11:04:07;2.05;;;0.70;;
40373;SDS011;26079;45.958;12.492;2023-05-16T11:09:06;0.88;;;0.40;;
40373;SDS011;26079;45.958;12.492;2023-05-16T11:22:09;3.75;;;0.40;;
40373;SDS011;26079;45.958;12.492;2023-05-16T11:24:36;3.05;;;1.00;;
40373;SDS011;26079;45.958;12.492;2023-05-16T11:27:03;1.77;;;1.05;;
40373;SDS011;26079;45.958;12.492;2023-05-16T11:29:33;1.20;;;1.10;;
40373;SDS011;26079;45.958;12.492;2023-05-16T11:32:01;3.05;;;2.67;;
40373;SDS011;26079;45.958;12.492;2023-05-16T11:34:28;19.25;;;14.07;;
40373;SDS011;26079;45.958;12.492;2023-05-16T11:36:55;8.07;;;7.57;;
40373;SDS011;26079;45.958;12.492;2023-05-16T11:39:21;27.08;;;25.63;;
40373;SDS011;26079;45.958;12.492;2023-05-16T11:41:50;1.85;;;1.35;;
40373;SDS011;26079;45.958;12.492;2023-05-16T11:44:17;2.75;;;2.03;;
40373;SDS011;26079;45.958;12.492;2023-05-16T11:46:43;1.88;;;1.42;;
40373;SDS011;26079;45.958;12.492;2023-05-16T11:49:10;2.60;;;2.40;;
40373;SDS011;26079;45.958;12.492;2023-05-16T11:51:37;0.35;;;0.25;;
40373;SDS011;26079;45.958;12.492;2023-05-16T11:54:03;5.15;;;0.63;;
40373;SDS011;26079;45.958;12.492;2023-05-16T11:56:29;0.95;;;0.10;;
40373;SDS011;26079;45.958;12.492;2023-05-16T11:58:56;0.77;;;0.20;;
40373;SDS011;26079;45.958;12.492;2023-05-16T12:01:30;0.20;;;0.10;;
40373;SDS011;26079;45.958;12.492;2023-05-16T12:03:59;1.85;;;0.30;;
40373;SDS011;26079;45.958;12.492;2023-05-16T12:06:25;1.30;;;0.50;;
40373;SDS011;26079;45.958;12.492;2023-05-16T12:08:51;1.05;;;0.30;;
40373;SDS011;26079;45.958;12.492;2023-05-16T12:11:17;1.13;;;0.25;;
40373;SDS011;26079;45.958;12.492;2023-05-16T12:13:43;4.07;;;0.93;;
40373;SDS011;26079;45.958;12.492;2023-05-16T12:16:10;0.20;;;0.05;;
40373;SDS011;26079;45.958;12.492;2023-05-16T12:18:37;2.75;;;1.02;;
40373;SDS011;26079;45.958;12.492;2023-05-16T12:21:03;0.82;;;0.22;;
40373;SDS011;26079;45.958;12.492;2023-05-16T12:23:31;0.93;;;0.50;;
40373;SDS011;26079;45.958;12.492;2023-05-16T12:25:57;0.43;;;0.20;;
40373;SDS011;26079;45.958;12.492;2023-05-16T12:28:28;1.13;;;0.30;;
40373;SDS011;26079;45.958;12.492;2023-05-16T12:30:56;3.17;;;0.20;;
40373;SDS011;26079;45.958;12.492;2023-05-16T12:33:22;5.72;;;0.30;;
40373;SDS011;26079;45.958;12.492;2023-05-16T12:35:48;1.92;;;0.22;;
40373;SDS011;26079;45.958;12.492;2023-05-16T12:38:16;1.73;;;0.55;;
40373;SDS011;26079;45.958;12.492;2023-05-16T12:40:44;1.88;;;0.20;;
40373;SDS011;26079;45.958;12.492;2023-05-16T12:43:14;3.08;;;0.13;;
40373;SDS011;26079;45.958;12.492;2023-05-16T12:45:40;3.50;;;1.15;;
40373;SDS011;26079;45.958;12.492;2023-05-16T12:48:13;0.47;;;0.20;;
40373;SDS011;26079;45.958;12.492;2023-05-16T12:50:39;0.90;;;0.52;;
40373;SDS011;26079;45.958;12.492;2023-05-16T12:53:09;0.52;;;0.20;;
40373;SDS011;26079;45.958;12.492;2023-05-16T12:55:36;0.10;;;0.10;;
40373;SDS011;26079;45.958;12.492;2023-05-16T12:58:02;0.63;;;0.10;;
40373;SDS011;26079;45.958;12.492;2023-05-16T13:00:28;1.80;;;0.20;;
40373;SDS011;26079;45.958;12.492;2023-05-16T13:02:53;3.03;;;0.35;;
40373;SDS011;26079;45.958;12.492;2023-05-16T13:05:19;1.90;;;0.30;;
40373;SDS011;26079;45.958;12.492;2023-05-16T13:07:47;2.20;;;0.52;;
40373;SDS011;26079;45.958;12.492;2023-05-16T13:10:15;2.35;;;0.50;;
40373;SDS011;26079;45.958;12.492;2023-05-16T13:12:42;1.40;;;0.10;;
40373;SDS011;26079;45.958;12.492;2023-05-16T13:15:08;4.57;;;0.30;;
40373;SDS011;26079;45.958;12.492;2023-05-16T13:17:39;0.43;;;0.15;;
40373;SDS011;26079;45.958;12.492;2023-05-16T13:20:06;1.38;;;0.38;;
40373;SDS011;26079;45.958;12.492;2023-05-16T13:22:34;0.40;;;0.10;;
40373;SDS011;26079;45.958;12.492;2023-05-16T13:25:00;0.05;;;0.00;;
40373;SDS011;26079;45.958;12.492;2023-05-16T13:27:28;1.23;;;0.20;;
40373;SDS011;26079;45.958;12.492;2023-05-16T13:29:54;0.55;;;0.22;;
40373;SDS011;26079;45.958;12.492;2023-05-16T13:32:20;0.80;;;0.30;;
40373;SDS011;26079;45.958;12.492;2023-05-16T13:34:45;6.45;;;1.38;;
40373;SDS011;26079;45.958;12.492;2023-05-16T13:37:11;0.65;;;0.20;;
40373;SDS011;26079;45.958;12.492;2023-05-16T13:39:37;2.40;;;0.30;;
40373;SDS011;26079;45.958;12.492;2023-05-16T13:42:02;1.17;;;1.02;;
40373;SDS011;26079;45.958;12.492;2023-05-16T13:44:28;5.32;;;3.60;;
40373;SDS011;26079;45.958;12.492;2023-05-16T13:46:54;3.13;;;2.05;;
40373;SDS011;26079;45.958;12.492;2023-05-16T13:49:21;0.32;;;0.32;;
40373;SDS011;26079;45.958;12.492;2023-05-16T13:51:47;1.08;;;1.08;;
40373;SDS011;26079;45.958;12.492;2023-05-16T13:54:13;2.15;;;1.17;;
40373;SDS011;26079;45.958;12.492;2023-05-16T13:56:39;4.15;;;0.63;;
40373;SDS011;26079;45.958;12.492;2023-05-16T13:59:04;1.85;;;1.75;;
40373;SDS011;26079;45.958;12.492;2023-05-16T14:01:30;2.08;;;1.98;;
40373;SDS011;26079;45.958;12.492;2023-05-16T14:03:56;2.15;;;2.05;;
40373;SDS011;26079;45.958;12.492;2023-05-16T14:06:22;2.80;;;2.58;;
40373;SDS011;26079;45.958;12.492;2023-05-16T14:08:48;4.43;;;4.22;;
40373;SDS011;26079;45.958;12.492;2023-05-16T14:11:13;2.45;;;2.33;;
40373;SDS011;26079;45.958;12.492;2023-05-16T14:13:39;6.25;;;2.15;;
40373;SDS011;26079;45.958;12.492;2023-05-16T14:16:05;2.75;;;2.65;;
40373;SDS011;26079;45.958;12.492;2023-05-16T14:18:32;1.75;;;1.75;;
40373;SDS011;26079;45.958;12.492;2023-05-16T14:20:58;0.32;;;0.30;;
40373;SDS011;26079;45.958;12.492;2023-05-16T14:23:23;0.95;;;0.95;;
40373;SDS011;26079;45.958;12.492;2023-05-16T14:25:49;3.15;;;2.95;;
40373;SDS011;26079;45.958;12.492;2023-05-16T14:28:15;1.65;;;1.55;;
40373;SDS011;26079;45.958;12.492;2023-05-16T14:30:41;2.75;;;2.28;;
40373;SDS011;26079;45.958;12.492;2023-05-16T14:33:08;3.00;;;2.90;;
40373;SDS011;26079;45.958;12.492;2023-05-16T14:35:34;1.40;;;1.30;;
40373;SDS011;26079;45.958;12.492;2023-05-16T14:38:05;1.83;;;1.73;;
40373;SDS011;26079;45.958;12.492;2023-05-16T14:40:31;4.70;;;1.88;;
40373;SDS011;26079;45.958;12.492;2023-05-16T14:42:58;2.03;;;1.92;;
40373;SDS011;26079;45.958;12.492;2023-05-16T14:45:24;1.85;;;1.75;;
40373;SDS011;26079;45.958;12.492;2023-05-16T14:47:50;2.90;;;2.80;;
40373;SDS011;26079;45.958;12.492;2023-05-16T14:50:16;1.73;;;1.63;;